createdAt,value
2019-03-20T05:06:33.182Z,8.73
2019-03-20T05:09:02.426Z,7.93
2019-03-20T05:11:31.622Z,8.20
2019-03-20T05:14:00.968Z,8.83
2019-03-20T05:16:30.118Z,8.10
2019-03-20T05:18:59.282Z,7.80
2019-03-20T05:21:28.598Z,8.00
2019-03-20T05:23:58.136Z,7.87
2019-03-20T05:26:28.741Z,7.97
2019-03-20T05:28:57.903Z,7.73
2019-03-20T05:31:27.070Z,7.63
2019-03-20T05:33:56.224Z,7.97
2019-03-20T05:36:25.458Z,7.33
2019-03-20T05:38:54.616Z,7.70
2019-03-20T05:41:23.787Z,8.10
2019-03-20T05:43:53.033Z,7.40
2019-03-20T05:46:22.193Z,8.23
2019-03-20T05:48:51.346Z,7.93
2019-03-20T05:51:20.864Z,8.03
2019-03-20T05:53:50.196Z,7.70
2019-03-20T05:56:22.275Z,7.80
2019-03-20T05:58:51.479Z,7.47
2019-03-20T06:01:20.658Z,7.47
2019-03-20T06:03:49.819Z,6.77
2019-03-20T06:06:19.979Z,7.47
2019-03-20T06:08:49.211Z,7.27
2019-03-20T06:11:18.365Z,6.80
2019-03-20T06:13:47.657Z,7.00
2019-03-20T06:16:16.838Z,7.60
2019-03-20T06:18:45.970Z,7.60
2019-03-20T06:21:15.255Z,7.17
2019-03-20T06:23:46.487Z,7.10
2019-03-20T06:26:15.611Z,7.17
2019-03-20T06:28:44.837Z,7.60
2019-03-20T06:31:13.983Z,7.13
2019-03-20T06:33:43.103Z,7.43
2019-03-20T06:36:12.273Z,7.57
2019-03-20T06:38:41.419Z,7.50
2019-03-20T06:41:10.542Z,7.43
2019-03-20T06:43:39.709Z,7.57
2019-03-20T06:46:08.845Z,7.57
2019-03-20T06:48:38.000Z,7.57
2019-03-20T06:51:07.156Z,7.63
2019-03-20T06:53:36.736Z,7.00
2019-03-20T06:56:06.331Z,7.33
2019-03-20T06:58:35.481Z,7.10
2019-03-20T07:01:27.097Z,7.57
2019-03-20T07:04:28.579Z,7.73
2019-03-20T07:07:17.308Z,7.00
2019-03-20T07:10:17.239Z,7.57
2019-03-20T07:12:46.409Z,7.37
2019-03-20T07:15:15.616Z,7.27
2019-03-20T07:17:45.387Z,6.23
2019-03-20T07:20:16.916Z,6.90
2019-03-20T07:22:46.043Z,5.90
2019-03-20T07:25:17.070Z,6.07
2019-03-20T07:27:46.232Z,5.90
2019-03-20T07:30:15.394Z,5.80
2019-03-20T07:32:44.523Z,6.50
2019-03-20T07:35:13.807Z,5.97
2019-03-20T07:37:43.223Z,5.77
2019-03-20T07:40:12.715Z,5.80
2019-03-20T07:42:41.894Z,5.60
2019-03-20T07:45:11.071Z,5.43
2019-03-20T07:47:40.511Z,5.90
2019-03-20T07:50:09.717Z,5.83
2019-03-20T07:52:39.071Z,5.80
2019-03-20T07:55:08.258Z,5.40
2019-03-20T07:57:38.755Z,5.37
2019-03-20T08:00:13.327Z,5.20
2019-03-20T08:02:42.526Z,4.93
2019-03-20T08:05:11.769Z,4.73
2019-03-20T08:07:40.928Z,4.57
2019-03-20T08:10:12.280Z,4.90
2019-03-20T08:12:41.718Z,5.07
2019-03-20T08:15:12.662Z,4.70
2019-03-20T08:17:41.811Z,4.03
2019-03-20T08:20:12.447Z,3.50
2019-03-20T08:22:41.603Z,3.40
2019-03-20T08:25:10.745Z,3.80
2019-03-20T08:27:39.879Z,3.90
2019-03-20T08:30:10.698Z,3.93
2019-03-20T08:32:39.867Z,3.97
2019-03-20T08:35:09.473Z,4.40
2019-03-20T08:37:39.401Z,4.60
2019-03-20T08:40:09.729Z,4.57
2019-03-20T08:42:39.498Z,5.00
2019-03-20T08:45:10.245Z,4.60
2019-03-20T08:47:39.972Z,4.20
2019-03-20T08:50:16.588Z,4.40
2019-03-20T08:52:45.709Z,3.90
2019-03-20T08:55:15.840Z,3.80
2019-03-20T08:57:47.009Z,4.13
2019-03-20T09:00:19.826Z,3.67
2019-03-20T09:02:52.617Z,3.33
2019-03-20T09:05:24.985Z,3.43
2019-03-20T09:07:54.542Z,3.00
2019-03-20T09:10:23.670Z,3.67
2019-03-20T09:12:52.927Z,3.20
2019-03-20T09:15:22.072Z,3.10
2019-03-20T09:17:53.312Z,3.50
2019-03-20T09:20:22.832Z,2.60
2019-03-20T09:22:52.083Z,2.67
2019-03-20T09:25:21.224Z,2.87
2019-03-20T09:27:50.376Z,3.30
2019-03-20T09:30:20.730Z,2.87
2019-03-20T09:32:50.028Z,2.77
2019-03-20T09:35:19.697Z,2.97
2019-03-20T09:37:52.504Z,3.13
2019-03-20T09:40:23.697Z,2.60
2019-03-20T09:42:56.066Z,2.70
2019-03-20T09:45:25.664Z,3.10
2019-03-20T09:47:57.549Z,2.60
2019-03-20T09:50:26.729Z,3.23
2019-03-20T09:52:57.184Z,2.53
2019-03-20T09:55:29.855Z,2.80
2019-03-20T09:57:59.099Z,3.50
2019-03-20T10:00:28.269Z,2.60
2019-03-20T10:02:57.505Z,2.27
2019-03-20T10:05:26.662Z,2.20
2019-03-20T10:07:56.121Z,1.97
2019-03-20T10:10:25.296Z,2.00
2019-03-20T10:12:57.695Z,2.40
2019-03-20T10:15:27.066Z,2.50
2019-03-20T10:17:56.321Z,3.00
2019-03-20T10:20:26.857Z,2.90
2019-03-20T10:22:56.131Z,2.37
2019-03-20T10:25:25.306Z,2.70
2019-03-20T10:27:54.475Z,2.90
2019-03-20T10:30:24.964Z,3.23
2019-03-20T10:32:54.299Z,2.77
2019-03-20T10:35:23.442Z,3.30
2019-03-20T10:37:52.584Z,3.20
2019-03-20T10:40:22.383Z,2.80
2019-03-20T10:42:53.953Z,2.60
2019-03-20T10:45:23.127Z,2.50
2019-03-20T10:47:53.240Z,2.47
2019-03-20T10:50:23.278Z,2.60
2019-03-20T10:52:52.449Z,2.53
2019-03-20T10:55:22.128Z,2.80
2019-03-20T10:57:51.261Z,2.83
2019-03-20T11:00:21.442Z,2.60
2019-03-20T11:02:50.617Z,2.60
2019-03-20T11:05:20.271Z,2.73
2019-03-20T11:07:49.695Z,2.60
2019-03-20T11:10:20.894Z,2.60
2019-03-20T11:12:50.089Z,2.63
2019-03-20T11:15:19.664Z,2.60
2019-03-20T11:17:48.892Z,2.73
2019-03-20T11:20:18.103Z,2.73
2019-03-20T11:22:48.014Z,2.67
2019-03-20T11:25:19.505Z,2.57
2019-03-20T11:27:48.758Z,2.60
2019-03-20T11:30:23.666Z,2.80
2019-03-20T11:32:52.901Z,2.83
2019-03-20T11:35:22.082Z,2.50
2019-03-20T11:37:51.503Z,2.83
2019-03-20T11:40:25.717Z,2.53
2019-03-20T11:42:55.773Z,2.60
2019-03-20T11:45:26.882Z,2.50
2019-03-20T11:47:57.372Z,2.80
2019-03-20T11:50:34.079Z,2.50
2019-03-20T11:53:03.215Z,2.33
2019-03-20T11:55:32.518Z,2.17
2019-03-20T11:58:02.316Z,2.80
2019-03-20T12:00:33.040Z,2.30
2019-03-20T12:03:02.247Z,2.60
2019-03-20T12:05:31.493Z,2.20
2019-03-20T12:08:01.831Z,2.60
2019-03-20T12:10:31.033Z,2.50
2019-03-20T12:13:00.197Z,2.80
2019-03-20T12:15:29.334Z,2.63
2019-03-20T12:17:58.722Z,2.50
2019-03-20T12:20:28.449Z,2.60
2019-03-20T12:22:59.697Z,2.80
2019-03-20T12:25:29.239Z,2.60
2019-03-20T12:27:58.756Z,2.40
2019-03-20T12:30:29.694Z,2.67
2019-03-20T12:32:59.249Z,2.30
2019-03-20T12:35:29.445Z,2.50
2019-03-20T12:38:00.281Z,2.57
2019-03-20T12:40:30.516Z,2.50
2019-03-20T12:43:00.553Z,2.33
2019-03-20T12:45:35.284Z,2.30
2019-03-20T12:48:05.368Z,2.70
2019-03-20T12:50:34.571Z,2.53
2019-03-20T12:53:04.256Z,2.83
2019-03-20T12:55:33.506Z,2.23
2019-03-20T12:58:04.363Z,2.63
2019-03-20T13:00:40.006Z,2.60
2019-03-20T13:05:45.178Z,3.00
2019-03-20T13:08:16.372Z,2.60
2019-03-20T13:10:45.539Z,2.60
2019-03-20T13:13:16.653Z,3.10
2019-03-20T13:15:45.925Z,2.63
2019-03-20T13:18:19.214Z,2.90
2019-03-20T13:20:50.699Z,2.70
2019-03-20T13:23:22.546Z,2.27
2019-03-20T13:25:51.717Z,2.60
2019-03-20T13:28:22.812Z,2.70
2019-03-20T13:30:55.840Z,2.70
2019-03-20T13:33:26.462Z,2.90
2019-03-20T13:35:57.252Z,2.90
2019-03-20T13:38:27.614Z,2.73
2019-03-20T13:40:56.914Z,2.80
2019-03-20T13:43:26.189Z,2.50
2019-03-20T13:45:56.429Z,2.70
2019-03-20T13:48:26.538Z,2.53
2019-03-20T13:50:55.742Z,2.70
2019-03-20T13:53:25.100Z,2.40
2019-03-20T13:55:54.930Z,2.67
2019-03-20T13:58:24.194Z,2.87
2019-03-20T14:00:53.461Z,2.60
2019-03-20T14:03:22.732Z,2.70
2019-03-20T14:05:51.879Z,2.80
2019-03-20T14:08:21.053Z,2.80
2019-03-20T14:10:50.872Z,2.67
2019-03-20T14:13:23.174Z,2.50
2019-03-20T14:15:52.844Z,3.20
2019-03-20T14:18:22.113Z,4.10
2019-03-20T14:20:55.228Z,2.60
2019-03-20T14:23:24.331Z,2.87
2019-03-20T14:25:58.855Z,2.50
2019-03-20T14:28:29.832Z,2.80
2019-03-20T14:30:59.092Z,2.63
2019-03-20T14:33:29.691Z,2.67
2019-03-20T14:35:58.948Z,2.87
2019-03-20T14:38:30.176Z,2.90
2019-03-20T14:41:00.902Z,2.80
2019-03-20T14:43:31.519Z,2.57
2019-03-20T14:46:01.973Z,2.50
2019-03-20T14:48:31.817Z,2.70
2019-03-20T14:51:01.073Z,2.83
2019-03-20T14:53:30.484Z,3.10
2019-03-20T14:55:59.723Z,3.10
2019-03-20T14:58:29.435Z,3.00
2019-03-20T15:00:58.846Z,2.93
2019-03-20T15:03:28.283Z,3.00
2019-03-20T15:05:57.685Z,3.07
2019-03-20T15:08:27.097Z,2.60
2019-03-20T15:10:56.433Z,2.60
2019-03-20T15:13:25.679Z,2.50
2019-03-20T15:16:02.058Z,2.70
2019-03-20T15:18:31.290Z,2.43
2019-03-20T15:21:00.480Z,2.80
2019-03-20T15:23:32.674Z,2.90
2019-03-20T15:26:02.017Z,2.63
2019-03-20T15:28:31.236Z,2.83
2019-03-20T15:31:09.931Z,3.00
2019-03-20T15:33:41.137Z,2.60
2019-03-20T15:36:12.373Z,2.73
2019-03-20T15:38:41.985Z,2.80
2019-03-20T15:41:11.266Z,3.17
2019-03-20T15:43:46.045Z,2.77
2019-03-20T15:46:17.073Z,3.03
2019-03-20T15:48:48.404Z,2.70
2019-03-20T15:51:17.567Z,3.17
2019-03-20T15:53:46.829Z,2.60
2019-03-20T15:56:16.185Z,2.60
2019-03-20T15:58:45.396Z,3.00
2019-03-20T16:01:14.623Z,2.90
2019-03-20T16:03:43.813Z,2.93
2019-03-20T16:06:13.054Z,3.10
2019-03-20T16:08:42.259Z,3.30
2019-03-20T16:11:12.119Z,4.00
2019-03-20T16:13:41.465Z,3.97
2019-03-20T16:16:10.678Z,3.57
2019-03-20T16:18:39.885Z,2.70
2019-03-20T16:21:09.190Z,3.40
2019-03-20T16:23:39.528Z,3.00
2019-03-20T16:26:08.682Z,3.33
2019-03-20T16:28:37.939Z,2.77
2019-03-20T16:31:07.140Z,3.00
2019-03-20T16:33:36.322Z,3.00
2019-03-20T16:36:05.908Z,3.13
2019-03-20T16:38:35.068Z,3.40
2019-03-20T16:41:04.280Z,3.20
2019-03-20T16:43:33.516Z,3.40
2019-03-20T16:46:02.656Z,3.53
2019-03-20T16:48:31.833Z,3.97
2019-03-20T16:51:00.969Z,3.87
2019-03-20T16:53:30.455Z,4.23
2019-03-20T16:55:59.607Z,3.30
2019-03-20T16:58:28.778Z,3.40
2019-03-20T17:00:57.948Z,3.30
2019-03-20T17:03:27.079Z,3.40
2019-03-20T17:05:56.505Z,3.50
2019-03-20T17:08:25.770Z,3.27
2019-03-20T17:10:55.145Z,3.77
2019-03-20T17:13:24.308Z,4.00
2019-03-20T17:15:53.674Z,3.80
2019-03-20T17:18:23.024Z,3.07
2019-03-20T17:20:52.277Z,3.57
2019-03-20T17:23:24.003Z,3.63
2019-03-20T17:25:53.532Z,3.90
2019-03-20T17:28:25.419Z,3.40
2019-03-20T17:30:54.580Z,4.27
2019-03-20T17:33:23.719Z,4.70
2019-03-20T17:35:52.873Z,4.10
2019-03-20T17:38:22.115Z,4.53
2019-03-20T17:40:54.084Z,5.73
2019-03-20T17:43:23.233Z,6.73
2019-03-20T17:45:53.940Z,6.40
2019-03-20T17:48:23.130Z,5.37
2019-03-20T17:50:52.319Z,4.87
2019-03-20T17:53:21.513Z,5.33
2019-03-20T17:55:51.070Z,5.97
2019-03-20T17:58:20.245Z,5.43
2019-03-20T18:00:50.546Z,6.20
2019-03-20T18:03:19.930Z,5.97
2019-03-20T18:05:50.788Z,5.97
2019-03-20T18:08:22.750Z,5.60
2019-03-20T18:10:51.902Z,5.93
2019-03-20T18:13:21.119Z,6.10
2019-03-20T18:15:51.291Z,5.60
2019-03-20T18:18:20.545Z,5.53
2019-03-20T18:20:49.920Z,5.30
2019-03-20T18:23:28.072Z,5.30
2019-03-20T18:25:54.881Z,5.20
2019-03-20T18:28:24.112Z,5.20
2019-03-20T18:30:53.254Z,4.83
2019-03-20T18:33:22.411Z,5.80
2019-03-20T18:35:53.980Z,5.83
2019-03-20T18:38:23.132Z,5.90
2019-03-20T18:40:52.509Z,5.97
2019-03-20T18:43:22.510Z,5.93
2019-03-20T18:45:52.437Z,5.47
2019-03-20T18:48:22.206Z,6.27
2019-03-20T18:50:51.349Z,6.43
2019-03-20T18:53:23.467Z,7.00
2019-03-20T18:55:52.709Z,6.13
2019-03-20T18:58:21.883Z,6.97
2019-03-20T19:00:51.230Z,8.80
2019-03-20T19:03:20.782Z,10.87
2019-03-20T19:06:03.071Z,10.30
2019-03-20T19:08:32.326Z,7.63
2019-03-20T19:11:01.763Z,6.03
2019-03-20T19:13:34.098Z,6.47
2019-03-20T19:16:03.383Z,7.23
2019-03-20T19:18:33.870Z,6.67
2019-03-20T19:21:03.182Z,7.10
2019-03-20T19:23:32.445Z,6.83
2019-03-20T19:26:01.605Z,6.90
2019-03-20T19:28:30.772Z,7.70
2019-03-20T19:31:00.031Z,7.23
2019-03-20T19:33:31.250Z,7.80
2019-03-20T19:36:00.420Z,7.63
2019-03-20T19:38:34.939Z,7.70
2019-03-20T19:41:00.709Z,8.27
2019-03-20T19:43:30.047Z,7.40
2019-03-20T19:45:59.220Z,7.47
2019-03-20T19:48:29.554Z,8.03
2019-03-20T19:50:59.259Z,7.73
2019-03-20T19:53:28.740Z,7.37
2019-03-20T19:55:57.903Z,7.73
2019-03-20T19:58:27.544Z,8.03
2019-03-20T20:00:57.377Z,9.07
2019-03-20T20:03:26.860Z,8.90
2019-03-20T20:05:56.227Z,8.70
2019-03-20T20:08:25.511Z,9.77
2019-03-20T20:10:54.684Z,9.47
2019-03-20T20:13:23.855Z,8.83
2019-03-20T20:15:53.117Z,8.90
2019-03-20T20:18:22.365Z,8.70
2019-03-20T20:20:51.644Z,10.17
2019-03-20T20:23:20.887Z,11.00
2019-03-20T20:25:50.110Z,11.80
2019-03-20T20:28:19.380Z,13.33
2019-03-20T20:30:48.606Z,14.13
2019-03-20T20:33:18.063Z,14.33
2019-03-20T20:35:47.423Z,13.20
2019-03-20T20:38:16.566Z,14.20
2019-03-20T20:40:45.734Z,13.70
2019-03-20T20:43:14.989Z,14.97
2019-03-20T20:45:44.308Z,18.97
2019-03-20T20:48:13.643Z,20.47
2019-03-20T20:50:42.858Z,24.33
2019-03-20T20:53:12.008Z,22.83
2019-03-20T20:55:41.420Z,21.77
2019-03-20T20:58:10.757Z,19.93
2019-03-20T21:00:40.066Z,14.33
2019-03-20T21:03:09.343Z,10.77
2019-03-20T21:05:38.572Z,10.20
2019-03-20T21:08:07.876Z,9.00
2019-03-20T21:10:37.628Z,9.03
2019-03-20T21:13:06.821Z,8.13
2019-03-20T21:15:48.485Z,8.10
2019-03-20T21:19:04.883Z,7.07
2019-03-20T21:22:08.359Z,7.30
2019-03-20T21:24:42.776Z,7.27
2019-03-20T21:27:50.172Z,6.63
2019-03-20T21:30:42.836Z,6.77
2019-03-20T21:33:25.875Z,6.57
2019-03-20T21:36:41.111Z,7.80
2019-03-20T21:39:10.811Z,7.20
2019-03-20T21:42:27.275Z,7.60
2019-03-20T21:45:26.576Z,7.07
2019-03-20T21:47:56.494Z,7.63
2019-03-20T21:50:54.182Z,7.33
2019-03-20T21:53:34.461Z,7.50
2019-03-20T21:56:24.593Z,7.63
2019-03-20T21:59:04.936Z,7.50
2019-03-20T22:02:13.846Z,7.27
2019-03-20T22:04:43.520Z,7.50
2019-03-20T22:07:13.708Z,7.97
2019-03-20T22:10:35.702Z,7.47
2019-03-20T22:13:19.019Z,7.97
2019-03-20T22:16:31.864Z,8.40
2019-03-20T22:19:41.873Z,8.43
2019-03-20T22:22:44.201Z,7.77
2019-03-20T22:25:59.327Z,7.53
2019-03-20T22:28:47.297Z,8.33
